EST,Max TemperatureF,Mean TemperatureF,Min TemperatureF,Max Dew PointF,MeanDew PointF,Min DewpointF,Max Humidity, Mean Humidity, Min Humidity, Max Sea Level PressureIn, Mean Sea Level PressureIn, Min Sea Level PressureIn, Max VisibilityMiles, Mean VisibilityMiles, Min VisibilityMiles, Max Wind SpeedMPH, Mean Wind SpeedMPH, Max Gust SpeedMPH,PrecipitationIn, CloudCover, Events, WindDirDegrees
2011-11-1,62,49,36,35,33,29,82,56,29,30.35,30.29,30.22,10,10,10,15,4,21,0.00,0,,6
2011-11-2,63,49,35,40,35,31,89,62,34,30.43,30.35,30.28,10,10,8,10,2,15,0.00,0,,189
2011-11-3,64,50,36,48,39,35,93,64,34,30.27,30.07,29.91,10,8,2,16,7,22,0.53,2,Rain,205
2011-11-4,55,50,45,48,46,33,93,77,60,30.15,29.88,29.70,10,6,2,32,13,36,1.51,6,Rain,35
2011-11-5,53,46,38,30,27,24,65,50,35,30.45,30.32,30.16,10,10,10,20,9,25,0.00,1,,42
2011-11-6,62,50,38,42,37,30,89,68,46,30.50,30.43,30.38,10,10,10,9,3,13,0.00,2,,28
2011-11-7,68,54,39,46,41,36,92,66,39,30.40,30.35,30.30,10,10,10,10,2,16,0.00,0,,283
2011-11-8,69,55,40,46,43,37,89,64,39,30.30,30.24,30.18,10,10,10,6,1,17,0.00,0,,100
2011-11-9,68,54,39,47,42,38,92,67,42,30.19,30.08,29.97,10,10,7,9,3,21,0.00,0,,189
2011-11-10,59,48,36,52,42,26,83,66,49,29.95,29.89,29.83,10,10,3,16,4,20,0.03,5,Rain,338
2011-11-11,51,41,31,24,20,15,63,44,24,30.17,30.08,29.95,10,10,9,23,9,31,0.00,0,,274
2011-11-12,63,46,29,32,28,23,78,53,27,30.27,30.22,30.18,10,10,10,18,7,26,0.00,0,,209
2011-11-13,61,52,42,46,34,23,77,50,23,30.22,30.16,30.09,10,10,10,28,11,33,0.00,0,,217
2011-11-14,73,63,53,54,49,45,77,62,46,30.11,30.03,29.95,10,10,10,24,14,31,0.00,1,,227
2011-11-15,75,69,62,57,55,53,73,63,53,29.96,29.94,29.90,10,10,10,22,12,28,0.00,5,,215
2011-11-16,67,61,54,64,61,50,93,83,73,29.92,29.82,29.72,10,5,1,23,9,29,2.18,8,Rain-Thunderstorm,219
2011-11-17,55,43,30,50,39,20,93,67,41,30.31,30.00,29.84,10,8,2,22,8,28,0.63,6,Rain,358
2011-11-18,48,38,27,24,17,9,78,50,21,30.52,30.44,30.32,10,10,10,9,3,13,0.00,0,,243
2011-11-19,56,41,26,38,29,21,81,57,32,30.47,30.40,30.33,10,10,10,12,4,22,0.00,2,,215
2011-11-20,72,57,42,57,46,36,90,72,53,30.34,30.28,30.19,10,10,10,20,9,28,0.00,5,,221
2011-11-21,74,65,56,57,56,54,93,73,53,30.25,30.19,30.15,10,8,2,15,5,26,T,4,,240
2011-11-22,71,64,56,60,57,54,97,84,70,30.18,30.09,29.85,10,7,0,23,7,30,T,5,Rain,195
2011-11-23,67,58,48,61,46,31,93,68,42,30.15,29.89,29.75,10,10,4,31,15,39,0.23,3,Rain,290
2011-11-24,62,50,37,33,30,27,70,48,25,30.35,30.29,30.17,10,10,10,9,4,15,0.00,0,,262
2011-11-25,68,51,33,35,28,21,82,50,18,30.35,30.30,30.24,10,10,10,17,7,22,0.00,0,,228
2011-11-26,67,54,40,47,40,29,77,61,45,30.34,30.27,30.22,10,10,10,21,7,30,0.00,1,,220
2011-11-27,69,61,52,52,49,45,77,65,52,30.19,30.11,30.04,10,10,10,20,10,26,0.00,6,,181
2011-11-28,70,63,56,61,56,53,93,77,61,30.04,29.93,29.74,10,8,2,24,12,31,0.90,7,Rain,143
2011-11-29,61,49,37,54,41,32,93,75,56,29.84,29.79,29.75,10,8,2,24,12,28,0.77,7,Rain,227
2011-11-30,51,43,34,34,31,27,96,69,42,30.14,29.95,29.83,10,10,10,21,9,25,0.00,2,,278